sensor_id;sensor_type;location;lat;lon;timestamp;pressure;altitude;pressure_sealevel;temperature;humidity
69689;BME280;56932;38.402;-96.176;2023-01-28T00:02:18;97498.95;;;22.10;19.49
69689;BME280;56932;38.402;-96.176;2023-01-28T00:04:44;97506.29;;;22.12;19.27
69689;BME280;56932;38.402;-96.176;2023-01-28T00:07:09;97506.74;;;21.49;19.50
69689;BME280;56932;38.402;-96.176;2023-01-28T00:09:35;97508.88;;;21.93;19.51
69689;BME280;56932;38.402;-96.176;2023-01-28T00:12:00;97512.33;;;22.19;19.29
69689;BME280;56932;38.402;-96.176;2023-01-28T00:14:26;97515.29;;;21.68;19.63
69689;BME280;56932;38.402;-96.176;2023-01-28T00:16:51;97521.17;;;22.43;19.08
69689;BME280;56932;38.402;-96.176;2023-01-28T00:19:17;97515.68;;;21.17;19.60
69689;BME280;56932;38.402;-96.176;2023-01-28T00:21:42;97519.86;;;21.72;19.54
69689;BME280;56932;38.402;-96.176;2023-01-28T00:24:08;97526.86;;;21.79;19.14
69689;BME280;56932;38.402;-96.176;2023-01-28T00:26:34;97525.67;;;21.67;19.54
69689;BME280;56932;38.402;-96.176;2023-01-28T00:28:59;97531.48;;;22.38;19.00
69689;BME280;56932;38.402;-96.176;2023-01-28T00:31:26;97531.09;;;22.40;18.95
69689;BME280;56932;38.402;-96.176;2023-01-28T00:33:51;97532.09;;;22.14;19.14
69689;BME280;56932;38.402;-96.176;2023-01-28T00:36:17;97539.46;;;22.21;18.92
69689;BME280;56932;38.402;-96.176;2023-01-28T00:38:41;97545.26;;;21.76;19.34
69689;BME280;56932;38.402;-96.176;2023-01-28T00:41:08;97546.68;;;22.17;18.72
69689;BME280;56932;38.402;-96.176;2023-01-28T00:43:32;97537.89;;;22.14;19.05
69689;BME280;56932;38.402;-96.176;2023-01-28T00:45:58;97538.77;;;22.12;19.02
69689;BME280;56932;38.402;-96.176;2023-01-28T00:48:23;97548.70;;;22.28;18.89
69689;BME280;56932;38.402;-96.176;2023-01-28T00:50:49;97546.62;;;21.40;19.54
69689;BME280;56932;38.402;-96.176;2023-01-28T00:53:14;97555.23;;;21.58;19.26
69689;BME280;56932;38.402;-96.176;2023-01-28T00:55:40;97553.80;;;21.57;19.16
69689;BME280;56932;38.402;-96.176;2023-01-28T00:58:06;97548.20;;;21.44;19.06
69689;BME280;56932;38.402;-96.176;2023-01-28T01:00:31;97546.98;;;21.66;19.29
69689;BME280;56932;38.402;-96.176;2023-01-28T01:02:56;97543.66;;;21.58;19.31
69689;BME280;56932;38.402;-96.176;2023-01-28T01:05:22;97540.13;;;20.93;19.75
69689;BME280;56932;38.402;-96.176;2023-01-28T01:07:47;97543.15;;;22.58;18.77
69689;BME280;56932;38.402;-96.176;2023-01-28T01:10:15;97541.35;;;22.31;18.74
69689;BME280;56932;38.402;-96.176;2023-01-28T01:12:39;97539.50;;;22.07;18.92
69689;BME280;56932;38.402;-96.176;2023-01-28T01:15:06;97540.30;;;21.40;19.34
69689;BME280;56932;38.402;-96.176;2023-01-28T01:17:30;97541.35;;;21.33;19.43
69689;BME280;56932;38.402;-96.176;2023-01-28T01:19:55;97542.16;;;21.58;19.38
69689;BME280;56932;38.402;-96.176;2023-01-28T01:22:21;97545.50;;;20.61;19.55
69689;BME280;56932;38.402;-96.176;2023-01-28T01:24:47;97548.81;;;22.22;18.92
69689;BME280;56932;38.402;-96.176;2023-01-28T01:27:12;97547.45;;;21.77;18.87
69689;BME280;56932;38.402;-96.176;2023-01-28T01:29:37;97545.70;;;21.87;18.92
69689;BME280;56932;38.402;-96.176;2023-01-28T01:32:04;97535.83;;;21.05;19.52
69689;BME280;56932;38.402;-96.176;2023-01-28T01:34:29;97531.88;;;21.10;19.49
69689;BME280;56932;38.402;-96.176;2023-01-28T01:36:54;97530.71;;;21.05;19.69
69689;BME280;56932;38.402;-96.176;2023-01-28T01:39:20;97536.41;;;21.75;18.97
69689;BME280;56932;38.402;-96.176;2023-01-28T01:41:45;97530.62;;;21.29;19.27
69689;BME280;56932;38.402;-96.176;2023-01-28T01:46:40;97533.58;;;21.43;19.20
69689;BME280;56932;38.402;-96.176;2023-01-28T01:49:10;97529.75;;;21.99;18.94
69689;BME280;56932;38.402;-96.176;2023-01-28T01:51:31;97528.30;;;21.74;19.07
69689;BME280;56932;38.402;-96.176;2023-01-28T01:53:54;97526.59;;;21.23;19.46
69689;BME280;56932;38.402;-96.176;2023-01-28T01:56:21;97520.77;;;20.81;19.58
69689;BME280;56932;38.402;-96.176;2023-01-28T01:58:45;97513.54;;;21.68;18.98
69689;BME280;56932;38.402;-96.176;2023-01-28T02:01:09;97506.31;;;21.09;19.34
69689;BME280;56932;38.402;-96.176;2023-01-28T02:03:39;97506.99;;;21.74;18.89
69689;BME280;56932;38.402;-96.176;2023-01-28T02:06:00;97509.65;;;22.19;18.70
69689;BME280;56932;38.402;-96.176;2023-01-28T02:08:25;97510.24;;;22.34;18.59
69689;BME280;56932;38.402;-96.176;2023-01-28T02:10:54;97502.25;;;21.77;18.80
69689;BME280;56932;38.402;-96.176;2023-01-28T02:13:18;97501.41;;;21.09;19.24
69689;BME280;56932;38.402;-96.176;2023-01-28T02:15:43;97502.99;;;21.31;19.12
69689;BME280;56932;38.402;-96.176;2023-01-28T02:18:07;97502.93;;;20.91;19.55
69689;BME280;56932;38.402;-96.176;2023-01-28T02:20:42;97508.16;;;22.16;18.67
69689;BME280;56932;38.402;-96.176;2023-01-28T02:25:34;97510.00;;;20.73;19.49
69689;BME280;56932;38.402;-96.176;2023-01-28T02:28:00;97515.56;;;21.22;19.32
69689;BME280;56932;38.402;-96.176;2023-01-28T02:30:18;97514.97;;;21.61;18.85
69689;BME280;56932;38.402;-96.176;2023-01-28T02:32:45;97510.11;;;21.55;19.25
69689;BME280;56932;38.402;-96.176;2023-01-28T02:35:13;97505.18;;;20.56;19.23
69689;BME280;56932;38.402;-96.176;2023-01-28T02:37:36;97511.06;;;21.65;18.96
69689;BME280;56932;38.402;-96.176;2023-01-28T02:40:01;97510.46;;;21.02;19.26
69689;BME280;56932;38.402;-96.176;2023-01-28T02:42:25;97506.27;;;21.37;19.13
69689;BME280;56932;38.402;-96.176;2023-01-28T02:44:48;97505.57;;;21.35;19.15
69689;BME280;56932;38.402;-96.176;2023-01-28T02:47:14;97502.72;;;21.91;18.73
69689;BME280;56932;38.402;-96.176;2023-01-28T02:49:41;97502.93;;;21.77;19.00
69689;BME280;56932;38.402;-96.176;2023-01-28T02:52:17;97498.94;;;20.74;19.58
69689;BME280;56932;38.402;-96.176;2023-01-28T02:54:37;97495.17;;;20.84;19.33
69689;BME280;56932;38.402;-96.176;2023-01-28T02:56:59;97495.47;;;21.51;18.99
69689;BME280;56932;38.402;-96.176;2023-01-28T02:59:25;97493.97;;;20.86;19.44
69689;BME280;56932;38.402;-96.176;2023-01-28T03:01:48;97494.08;;;21.78;18.76
69689;BME280;56932;38.402;-96.176;2023-01-28T03:04:17;97496.51;;;21.58;18.73
69689;BME280;56932;38.402;-96.176;2023-01-28T03:06:43;97494.79;;;20.46;19.67
69689;BME280;56932;38.402;-96.176;2023-01-28T03:09:05;97499.54;;;21.45;18.96
69689;BME280;56932;38.402;-96.176;2023-01-28T03:11:30;97497.73;;;21.88;18.82
69689;BME280;56932;38.402;-96.176;2023-01-28T03:13:53;97494.61;;;21.45;18.96
69689;BME280;56932;38.402;-96.176;2023-01-28T03:16:19;97496.19;;;21.26;18.88
69689;BME280;56932;38.402;-96.176;2023-01-28T03:18:48;97492.98;;;21.70;18.57
69689;BME280;56932;38.402;-96.176;2023-01-28T03:21:12;97497.88;;;20.69;19.29
69689;BME280;56932;38.402;-96.176;2023-01-28T03:23:38;97495.42;;;21.49;18.90
69689;BME280;56932;38.402;-96.176;2023-01-28T03:26:03;97497.69;;;21.94;18.83
69689;BME280;56932;38.402;-96.176;2023-01-28T03:28:27;97494.21;;;20.52;19.71
69689;BME280;56932;38.402;-96.176;2023-01-28T03:30:55;97492.07;;;20.94;19.47
69689;BME280;56932;38.402;-96.176;2023-01-28T03:33:18;97484.62;;;20.49;19.63
69689;BME280;56932;38.402;-96.176;2023-01-28T03:35:44;97484.48;;;22.19;18.77
69689;BME280;56932;38.402;-96.176;2023-01-28T03:38:10;97482.79;;;21.06;19.22
69689;BME280;56932;38.402;-96.176;2023-01-28T03:40:35;97485.89;;;21.42;19.35
69689;BME280;56932;38.402;-96.176;2023-01-28T03:43:00;97487.64;;;21.58;19.26
69689;BME280;56932;38.402;-96.176;2023-01-28T03:45:26;97479.13;;;22.05;18.93
69689;BME280;56932;38.402;-96.176;2023-01-28T03:47:52;97472.91;;;21.76;19.13
69689;BME280;56932;38.402;-96.176;2023-01-28T03:50:17;97475.51;;;21.00;19.48
69689;BME280;56932;38.402;-96.176;2023-01-28T03:52:43;97474.36;;;21.71;19.15
69689;BME280;56932;38.402;-96.176;2023-01-28T03:55:08;97472.42;;;20.80;19.45
69689;BME280;56932;38.402;-96.176;2023-01-28T03:57:34;97465.06;;;21.88;19.03
69689;BME280;56932;38.402;-96.176;2023-01-28T03:59:59;97460.74;;;21.16;19.54
69689;BME280;56932;38.402;-96.176;2023-01-28T04:02:24;97466.08;;;20.99;19.70
69689;BME280;56932;38.402;-96.176;2023-01-28T04:04:50;97469.73;;;21.75;19.13
69689;BME280;56932;38.402;-96.176;2023-01-28T04:07:16;97469.08;;;21.18;19.36
69689;BME280;56932;38.402;-96.176;2023-01-28T04:09:42;97467.67;;;21.44;19.37
69689;BME280;56932;38.402;-96.176;2023-01-28T04:12:07;97462.86;;;20.76;19.50
69689;BME280;56932;38.402;-96.176;2023-01-28T04:14:32;97460.92;;;20.92;19.76
69689;BME280;56932;38.402;-96.176;2023-01-28T04:16:58;97463.51;;;21.03;19.69
69689;BME280;56932;38.402;-96.176;2023-01-28T04:19:23;97462.48;;;21.24;19.54
69689;BME280;56932;38.402;-96.176;2023-01-28T04:21:49;97458.17;;;21.61;19.25
69689;BME280;56932;38.402;-96.176;2023-01-28T04:24:14;97458.48;;;21.16;19.42
69689;BME280;56932;38.402;-96.176;2023-01-28T04:26:40;97460.60;;;21.33;19.50
69689;BME280;56932;38.402;-96.176;2023-01-28T04:29:06;97463.91;;;21.55;19.36
69689;BME280;56932;38.402;-96.176;2023-01-28T04:31:31;97463.97;;;21.49;19.39
69689;BME280;56932;38.402;-96.176;2023-01-28T04:33:56;97461.12;;;21.51;19.15
69689;BME280;56932;38.402;-96.176;2023-01-28T04:36:22;97456.65;;;21.05;19.68
69689;BME280;56932;38.402;-96.176;2023-01-28T04:38:47;97460.81;;;21.31;19.50
69689;BME280;56932;38.402;-96.176;2023-01-28T04:41:13;97462.95;;;20.90;19.60
69689;BME280;56932;38.402;-96.176;2023-01-28T04:43:39;97461.20;;;20.72;19.75
69689;BME280;56932;38.402;-96.176;2023-01-28T04:46:05;97463.56;;;21.53;19.37
69689;BME280;56932;38.402;-96.176;2023-01-28T04:48:30;97457.86;;;21.14;19.70
69689;BME280;56932;38.402;-96.176;2023-01-28T04:50:55;97457.28;;;20.82;19.76
69689;BME280;56932;38.402;-96.176;2023-01-28T04:53:21;97454.70;;;20.76;20.02
69689;BME280;56932;38.402;-96.176;2023-01-28T04:55:46;97453.47;;;21.29;19.66
69689;BME280;56932;38.402;-96.176;2023-01-28T04:58:12;97450.17;;;21.06;19.68
69689;BME280;56932;38.402;-96.176;2023-01-28T05:00:37;97446.67;;;21.46;19.61
69689;BME280;56932;38.402;-96.176;2023-01-28T05:03:03;97449.29;;;20.91;20.04
69689;BME280;56932;38.402;-96.176;2023-01-28T05:05:29;97445.01;;;20.99;19.95
69689;BME280;56932;38.402;-96.176;2023-01-28T05:07:55;97446.11;;;21.26;19.79
69689;BME280;56932;38.402;-96.176;2023-01-28T05:10:20;97444.61;;;20.87;19.88
69689;BME280;56932;38.402;-96.176;2023-01-28T05:12:46;97442.96;;;21.28;19.77
69689;BME280;56932;38.402;-96.176;2023-01-28T05:15:11;97437.62;;;20.84;20.09
69689;BME280;56932;38.402;-96.176;2023-01-28T05:17:36;97434.06;;;20.81;20.10
69689;BME280;56932;38.402;-96.176;2023-01-28T05:20:02;97434.48;;;21.52;19.55
69689;BME280;56932;38.402;-96.176;2023-01-28T05:22:27;97425.32;;;20.70;19.94
69689;BME280;56932;38.402;-96.176;2023-01-28T05:24:53;97429.59;;;21.37;19.62
69689;BME280;56932;38.402;-96.176;2023-01-28T05:27:18;97426.80;;;21.00;19.73
69689;BME280;56932;38.402;-96.176;2023-01-28T05:29:44;97422.11;;;21.56;19.53
69689;BME280;56932;38.402;-96.176;2023-01-28T05:32:09;97415.85;;;20.74;19.77
69689;BME280;56932;38.402;-96.176;2023-01-28T05:34:35;97410.65;;;21.43;19.64
69689;BME280;56932;38.402;-96.176;2023-01-28T05:37:01;97410.24;;;22.11;19.10
69689;BME280;56932;38.402;-96.176;2023-01-28T05:39:26;97404.02;;;20.60;19.99
69689;BME280;56932;38.402;-96.176;2023-01-28T05:41:52;97390.12;;;20.21;20.53
69689;BME280;56932;38.402;-96.176;2023-01-28T05:44:17;97389.74;;;19.47;21.20
69689;BME280;56932;38.402;-96.176;2023-01-28T05:46:43;97382.03;;;20.02;20.84
69689;BME280;56932;38.402;-96.176;2023-01-28T05:49:08;97377.11;;;19.24;21.24
69689;BME280;56932;38.402;-96.176;2023-01-28T05:51:34;97367.96;;;19.65;21.38
69689;BME280;56932;38.402;-96.176;2023-01-28T05:53:59;97363.48;;;19.57;21.29
69689;BME280;56932;38.402;-96.176;2023-01-28T05:56:25;97361.03;;;19.16;21.81
69689;BME280;56932;38.402;-96.176;2023-01-28T05:58:50;97356.68;;;19.57;21.35
69689;BME280;56932;38.402;-96.176;2023-01-28T06:01:15;97350.26;;;18.92;21.92
69689;BME280;56932;38.402;-96.176;2023-01-28T06:03:41;97352.20;;;19.50;21.85
69689;BME280;56932;38.402;-96.176;2023-01-28T06:06:07;97352.27;;;18.49;21.55
69689;BME280;56932;38.402;-96.176;2023-01-28T06:08:32;97351.48;;;19.58;21.28
69689;BME280;56932;38.402;-96.176;2023-01-28T06:10:57;97346.55;;;20.12;21.06
69689;BME280;56932;38.402;-96.176;2023-01-28T06:13:23;97343.97;;;19.53;21.35
69689;BME280;56932;38.402;-96.176;2023-01-28T06:15:49;97339.89;;;19.72;21.46
69689;BME280;56932;38.402;-96.176;2023-01-28T06:18:14;97332.36;;;19.43;21.52
69689;BME280;56932;38.402;-96.176;2023-01-28T06:20:39;97327.44;;;19.25;21.70
69689;BME280;56932;38.402;-96.176;2023-01-28T06:23:05;97326.98;;;19.45;21.40
69689;BME280;56932;38.402;-96.176;2023-01-28T06:25:30;97322.49;;;19.82;21.12
69689;BME280;56932;38.402;-96.176;2023-01-28T06:27:56;97316.81;;;19.58;21.76
69689;BME280;56932;38.402;-96.176;2023-01-28T06:30:22;97313.28;;;19.76;21.66
69689;BME280;56932;38.402;-96.176;2023-01-28T06:35:13;97302.85;;;19.99;21.29
69689;BME280;56932;38.402;-96.176;2023-01-28T06:37:38;97308.54;;;20.60;20.83
69689;BME280;56932;38.402;-96.176;2023-01-28T06:40:05;97317.29;;;20.89;20.44
69689;BME280;56932;38.402;-96.176;2023-01-28T06:42:29;97315.00;;;21.12;20.22
69689;BME280;56932;38.402;-96.176;2023-01-28T06:44:55;97308.43;;;21.04;20.28
69689;BME280;56932;38.402;-96.176;2023-01-28T06:47:20;97310.35;;;20.76;20.52
69689;BME280;56932;38.402;-96.176;2023-01-28T06:49:46;97309.75;;;21.16;20.34
69689;BME280;56932;38.402;-96.176;2023-01-28T06:52:12;97305.87;;;20.07;20.67
69689;BME280;56932;38.402;-96.176;2023-01-28T06:54:37;97303.00;;;20.31;21.08
69689;BME280;56932;38.402;-96.176;2023-01-28T06:57:02;97301.72;;;21.53;20.09
69689;BME280;56932;38.402;-96.176;2023-01-28T06:59:28;97310.02;;;21.08;20.27
69689;BME280;56932;38.402;-96.176;2023-01-28T07:01:53;97319.21;;;20.99;20.32
69689;BME280;56932;38.402;-96.176;2023-01-28T07:04:19;97321.18;;;21.36;20.05
69689;BME280;56932;38.402;-96.176;2023-01-28T07:06:44;97315.77;;;20.98;20.11
69689;BME280;56932;38.402;-96.176;2023-01-28T07:09:10;97309.28;;;21.22;19.94
69689;BME280;56932;38.402;-96.176;2023-01-28T07:11:35;97308.31;;;21.33;20.01
69689;BME280;56932;38.402;-96.176;2023-01-28T07:14:01;97311.79;;;21.01;20.22
69689;BME280;56932;38.402;-96.176;2023-01-28T07:16:26;97309.76;;;21.30;19.97
69689;BME280;56932;38.402;-96.176;2023-01-28T07:18:52;97311.79;;;21.55;19.75
69689;BME280;56932;38.402;-96.176;2023-01-28T07:21:18;97300.21;;;21.25;19.96
69689;BME280;56932;38.402;-96.176;2023-01-28T07:23:43;97289.55;;;20.59;20.48
69689;BME280;56932;38.402;-96.176;2023-01-28T07:26:09;97287.45;;;21.05;19.89
69689;BME280;56932;38.402;-96.176;2023-01-28T07:28:34;97283.03;;;21.47;19.73
69689;BME280;56932;38.402;-96.176;2023-01-28T07:31:00;97282.38;;;21.31;19.85
69689;BME280;56932;38.402;-96.176;2023-01-28T07:33:25;97279.88;;;21.16;19.94
69689;BME280;56932;38.402;-96.176;2023-01-28T07:35:51;97264.47;;;21.34;20.19
69689;BME280;56932;38.402;-96.176;2023-01-28T07:38:16;97258.76;;;21.28;19.79
69689;BME280;56932;38.402;-96.176;2023-01-28T07:40:41;97260.33;;;21.10;19.94
69689;BME280;56932;38.402;-96.176;2023-01-28T07:43:07;97258.11;;;21.26;19.81
69689;BME280;56932;38.402;-96.176;2023-01-28T07:45:33;97259.97;;;20.63;20.44
69689;BME280;56932;38.402;-96.176;2023-01-28T07:48:00;97250.70;;;21.05;20.12
69689;BME280;56932;38.402;-96.176;2023-01-28T07:50:24;97253.30;;;20.88;20.04
69689;BME280;56932;38.402;-96.176;2023-01-28T07:52:49;97253.81;;;20.26;20.50
69689;BME280;56932;38.402;-96.176;2023-01-28T07:55:15;97244.79;;;20.82;20.06
69689;BME280;56932;38.402;-96.176;2023-01-28T07:57:49;97243.19;;;20.62;20.37
69689;BME280;56932;38.402;-96.176;2023-01-28T08:00:09;97243.62;;;20.83;20.02
69689;BME280;56932;38.402;-96.176;2023-01-28T08:02:32;97249.54;;;20.55;20.39
69689;BME280;56932;38.402;-96.176;2023-01-28T08:04:57;97249.32;;;20.85;20.15
69689;BME280;56932;38.402;-96.176;2023-01-28T08:07:22;97237.03;;;21.12;20.11
69689;BME280;56932;38.402;-96.176;2023-01-28T08:09:48;97238.02;;;20.58;20.12
69689;BME280;56932;38.402;-96.176;2023-01-28T08:12:14;97232.00;;;20.81;20.08
69689;BME280;56932;38.402;-96.176;2023-01-28T08:14:39;97228.61;;;20.58;20.42
69689;BME280;56932;38.402;-96.176;2023-01-28T08:17:05;97230.70;;;20.15;20.36
69689;BME280;56932;38.402;-96.176;2023-01-28T08:19:30;97225.89;;;21.02;19.89
69689;BME280;56932;38.402;-96.176;2023-01-28T08:21:56;97223.04;;;20.58;20.18
69689;BME280;56932;38.402;-96.176;2023-01-28T08:24:21;97220.88;;;20.49;20.03
69689;BME280;56932;38.402;-96.176;2023-01-28T08:26:48;97222.40;;;20.66;20.09
69689;BME280;56932;38.402;-96.176;2023-01-28T08:29:12;97216.91;;;20.24;20.22
69689;BME280;56932;38.402;-96.176;2023-01-28T08:31:38;97206.27;;;20.49;20.36
69689;BME280;56932;38.402;-96.176;2023-01-28T08:34:04;97202.52;;;20.45;20.15
69689;BME280;56932;38.402;-96.176;2023-01-28T08:36:29;97202.81;;;20.56;20.06
69689;BME280;56932;38.402;-96.176;2023-01-28T08:38:55;97209.15;;;20.88;19.98
69689;BME280;56932;38.402;-96.176;2023-01-28T08:41:21;97206.35;;;20.33;19.97
69689;BME280;56932;38.402;-96.176;2023-01-28T08:43:46;97199.71;;;20.70;20.04
69689;BME280;56932;38.402;-96.176;2023-01-28T08:46:11;97195.52;;;20.28;19.97
69689;BME280;56932;38.402;-96.176;2023-01-28T08:48:37;97193.33;;;20.67;20.00
69689;BME280;56932;38.402;-96.176;2023-01-28T08:51:03;97195.90;;;20.45;20.16
69689;BME280;56932;38.402;-96.176;2023-01-28T08:53:28;97193.99;;;20.32;20.23
69689;BME280;56932;38.402;-96.176;2023-01-28T08:55:54;97188.33;;;20.57;19.84
69689;BME280;56932;38.402;-96.176;2023-01-28T08:58:20;97189.10;;;20.50;19.87
69689;BME280;56932;38.402;-96.176;2023-01-28T09:00:45;97187.55;;;20.47;20.04
69689;BME280;56932;38.402;-96.176;2023-01-28T09:03:10;97183.18;;;20.35;19.92
69689;BME280;56932;38.402;-96.176;2023-01-28T09:05:37;97178.40;;;20.46;20.07
69689;BME280;56932;38.402;-96.176;2023-01-28T09:08:02;97172.46;;;20.21;20.17
69689;BME280;56932;38.402;-96.176;2023-01-28T09:10:27;97167.91;;;20.33;20.09
69689;BME280;56932;38.402;-96.176;2023-01-28T09:12:53;97160.89;;;20.00;20.31
69689;BME280;56932;38.402;-96.176;2023-01-28T09:15:18;97158.06;;;20.14;19.97
69689;BME280;56932;38.402;-96.176;2023-01-28T09:17:44;97159.21;;;20.43;19.90
69689;BME280;56932;38.402;-96.176;2023-01-28T09:20:10;97158.54;;;19.90;19.89
69689;BME280;56932;38.402;-96.176;2023-01-28T09:22:35;97156.40;;;20.35;20.08
69689;BME280;56932;38.402;-96.176;2023-01-28T09:25:00;97151.93;;;20.02;20.16
69689;BME280;56932;38.402;-96.176;2023-01-28T09:27:26;97148.13;;;19.82;20.29
69689;BME280;56932;38.402;-96.176;2023-01-28T09:29:51;97146.71;;;20.68;19.99
69689;BME280;56932;38.402;-96.176;2023-01-28T09:32:17;97140.32;;;20.09;19.83
69689;BME280;56932;38.402;-96.176;2023-01-28T09:34:43;97138.68;;;19.41;20.28
69689;BME280;56932;38.402;-96.176;2023-01-28T09:37:08;97140.63;;;19.11;20.35
69689;BME280;56932;38.402;-96.176;2023-01-28T09:39:34;97135.74;;;20.15;19.91
69689;BME280;56932;38.402;-96.176;2023-01-28T09:42:11;97129.04;;;19.89;20.28
69689;BME280;56932;38.402;-96.176;2023-01-28T09:44:36;97124.42;;;20.05;19.94
69689;BME280;56932;38.402;-96.176;2023-01-28T09:46:50;97123.87;;;20.13;19.88
69689;BME280;56932;38.402;-96.176;2023-01-28T09:49:20;97118.41;;;19.35;20.22
69689;BME280;56932;38.402;-96.176;2023-01-28T09:51:46;97120.11;;;19.85;20.05
69689;BME280;56932;38.402;-96.176;2023-01-28T09:54:14;97115.65;;;19.47;20.11
69689;BME280;56932;38.402;-96.176;2023-01-28T09:56:38;97112.26;;;20.02;19.90
69689;BME280;56932;38.402;-96.176;2023-01-28T09:59:04;97103.88;;;20.02;19.89
69689;BME280;56932;38.402;-96.176;2023-01-28T10:01:38;97106.69;;;19.88;19.96
69689;BME280;56932;38.402;-96.176;2023-01-28T10:03:53;97096.20;;;20.02;19.82
69689;BME280;56932;38.402;-96.176;2023-01-28T10:06:22;97093.83;;;19.66;19.86
69689;BME280;56932;38.402;-96.176;2023-01-28T10:11:14;97094.19;;;18.81;20.66
69689;BME280;56932;38.402;-96.176;2023-01-28T10:13:38;97091.17;;;19.05;20.68
69689;BME280;56932;38.402;-96.176;2023-01-28T10:16:06;97085.70;;;19.69;20.16
69689;BME280;56932;38.402;-96.176;2023-01-28T10:18:31;97086.96;;;19.46;20.16
69689;BME280;56932;38.402;-96.176;2023-01-28T10:20:51;97081.42;;;19.68;19.96
69689;BME280;56932;38.402;-96.176;2023-01-28T10:23:17;97077.00;;;19.91;19.60
69689;BME280;56932;38.402;-96.176;2023-01-28T10:25:41;97076.06;;;19.25;20.33
69689;BME280;56932;38.402;-96.176;2023-01-28T10:28:13;97073.20;;;18.46;20.98
69689;BME280;56932;38.402;-96.176;2023-01-28T10:30:32;97066.81;;;18.12;21.63
69689;BME280;56932;38.402;-96.176;2023-01-28T10:33:00;97066.55;;;18.02;21.77
69689;BME280;56932;38.402;-96.176;2023-01-28T10:35:22;97065.54;;;18.72;21.31
69689;BME280;56932;38.402;-96.176;2023-01-28T10:37:47;97066.10;;;18.47;21.79
69689;BME280;56932;38.402;-96.176;2023-01-28T10:40:15;97059.13;;;18.39;21.66
69689;BME280;56932;38.402;-96.176;2023-01-28T10:42:38;97054.63;;;18.55;21.59
69689;BME280;56932;38.402;-96.176;2023-01-28T10:45:07;97053.99;;;18.69;21.56
69689;BME280;56932;38.402;-96.176;2023-01-28T10:47:34;97054.81;;;18.84;21.54
69689;BME280;56932;38.402;-96.176;2023-01-28T10:49:57;97050.77;;;18.96;21.74
69689;BME280;56932;38.402;-96.176;2023-01-28T10:52:20;97046.42;;;18.53;21.81
69689;BME280;56932;38.402;-96.176;2023-01-28T10:54:46;97044.23;;;19.22;21.52
69689;BME280;56932;38.402;-96.176;2023-01-28T10:57:14;97044.12;;;19.17;21.23
69689;BME280;56932;38.402;-96.176;2023-01-28T10:59:37;97034.27;;;19.40;21.10
69689;BME280;56932;38.402;-96.176;2023-01-28T11:02:05;97031.02;;;19.35;21.34
69689;BME280;56932;38.402;-96.176;2023-01-28T11:04:30;97028.71;;;18.86;21.64
69689;BME280;56932;38.402;-96.176;2023-01-28T11:06:58;97027.69;;;19.15;21.67
69689;BME280;56932;38.402;-96.176;2023-01-28T11:09:22;97021.48;;;19.21;21.28
69689;BME280;56932;38.402;-96.176;2023-01-28T11:11:45;97017.41;;;19.38;21.58
69689;BME280;56932;38.402;-96.176;2023-01-28T11:16:39;97006.50;;;18.84;21.63
69689;BME280;56932;38.402;-96.176;2023-01-28T11:19:03;96999.63;;;19.73;21.16
69689;BME280;56932;38.402;-96.176;2023-01-28T11:21:29;96992.59;;;19.34;21.37
69689;BME280;56932;38.402;-96.176;2023-01-28T11:23:55;96988.26;;;19.37;21.59
69689;BME280;56932;38.402;-96.176;2023-01-28T11:26:21;96988.35;;;19.46;21.33
69689;BME280;56932;38.402;-96.176;2023-01-28T11:28:44;96984.86;;;20.04;21.10
69689;BME280;56932;38.402;-96.176;2023-01-28T11:31:12;96981.25;;;19.05;21.48
69689;BME280;56932;38.402;-96.176;2023-01-28T11:33:37;96985.02;;;19.17;21.86
69689;BME280;56932;38.402;-96.176;2023-01-28T11:36:11;96987.25;;;20.66;20.54
69689;BME280;56932;38.402;-96.176;2023-01-28T11:38:26;96983.74;;;20.06;20.84
69689;BME280;56932;38.402;-96.176;2023-01-28T11:40:53;96983.61;;;20.78;20.28
69689;BME280;56932;38.402;-96.176;2023-01-28T11:43:17;96985.03;;;21.12;19.86
69689;BME280;56932;38.402;-96.176;2023-01-28T11:45:48;96974.30;;;20.05;20.99
69689;BME280;56932;38.402;-96.176;2023-01-28T11:48:18;96981.64;;;20.06;20.68
69689;BME280;56932;38.402;-96.176;2023-01-28T11:50:41;96983.52;;;21.33;19.89
69689;BME280;56932;38.402;-96.176;2023-01-28T11:53:09;96978.87;;;21.06;20.02
69689;BME280;56932;38.402;-96.176;2023-01-28T11:55:36;96982.09;;;20.25;20.44
69689;BME280;56932;38.402;-96.176;2023-01-28T11:57:58;96983.95;;;21.18;19.90
69689;BME280;56932;38.402;-96.176;2023-01-28T12:00:27;96986.47;;;20.44;20.45
69689;BME280;56932;38.402;-96.176;2023-01-28T12:02:49;96987.70;;;21.38;19.76
69689;BME280;56932;38.402;-96.176;2023-01-28T12:05:18;96997.12;;;21.15;19.57
69689;BME280;56932;38.402;-96.176;2023-01-28T12:07:40;97004.22;;;21.61;19.58
69689;BME280;56932;38.402;-96.176;2023-01-28T12:10:02;96998.82;;;21.36;19.58
69689;BME280;56932;38.402;-96.176;2023-01-28T12:12:40;96996.70;;;21.82;19.43
69689;BME280;56932;38.402;-96.176;2023-01-28T12:14:58;96994.66;;;21.37;19.90
69689;BME280;56932;38.402;-96.176;2023-01-28T12:17:20;96991.57;;;21.56;19.44
69689;BME280;56932;38.402;-96.176;2023-01-28T12:19:49;96988.16;;;21.71;19.49
69689;BME280;56932;38.402;-96.176;2023-01-28T12:22:17;96987.23;;;21.53;19.41
69689;BME280;56932;38.402;-96.176;2023-01-28T12:24:43;96991.01;;;21.71;19.41
69689;BME280;56932;38.402;-96.176;2023-01-28T12:27:03;96993.73;;;21.64;19.45
69689;BME280;56932;38.402;-96.176;2023-01-28T12:29:28;96988.58;;;21.47;19.55
69689;BME280;56932;38.402;-96.176;2023-01-28T12:36:47;96989.54;;;21.73;19.36
69689;BME280;56932;38.402;-96.176;2023-01-28T12:39:15;96991.39;;;21.74;19.36
69689;BME280;56932;38.402;-96.176;2023-01-28T12:41:33;96993.81;;;21.54;19.46
69689;BME280;56932;38.402;-96.176;2023-01-28T12:43:59;96997.29;;;21.32;19.58
69689;BME280;56932;38.402;-96.176;2023-01-28T12:46:30;97000.45;;;21.42;19.47
69689;BME280;56932;38.402;-96.176;2023-01-28T12:48:50;96995.02;;;21.34;19.51